createdAt,value
2023-02-16T00:00:55.163Z,-0.80
2023-02-16T00:03:22.734Z,-0.80
2023-02-16T00:05:50.162Z,-0.90
2023-02-16T00:08:17.327Z,-0.90
2023-02-16T00:11:08.282Z,-1.00
2023-02-16T00:13:44.568Z,-0.90
2023-02-16T00:16:13.750Z,-0.90
2023-02-16T00:18:40.681Z,-0.90
2023-02-16T00:21:07.670Z,-0.90
2023-02-16T00:23:34.671Z,-0.90
2023-02-16T00:26:01.621Z,-1.00
2023-02-16T00:28:28.866Z,-1.10
2023-02-16T00:30:55.904Z,-1.00
2023-02-16T00:33:23.080Z,-1.00
2023-02-16T00:35:50.022Z,-1.10
2023-02-16T00:38:17.187Z,-0.70
2023-02-16T00:40:44.118Z,-1.10
2023-02-16T00:43:24.144Z,-1.10
2023-02-16T00:45:51.385Z,-1.10
2023-02-16T00:48:18.359Z,-1.10
2023-02-16T00:50:45.335Z,-1.10
2023-02-16T00:53:12.387Z,-1.20
2023-02-16T00:55:39.885Z,-1.20
2023-02-16T00:58:26.534Z,-1.20
2023-02-16T01:01:00.266Z,-1.20
2023-02-16T01:03:28.738Z,-1.20
2023-02-16T01:06:15.674Z,-1.20
2023-02-16T01:09:01.587Z,-1.20
2023-02-16T01:11:29.003Z,-1.20
2023-02-16T01:13:57.100Z,-1.20
2023-02-16T01:16:33.520Z,-1.10
2023-02-16T01:19:00.489Z,-1.10
2023-02-16T01:21:27.444Z,-1.20
2023-02-16T01:23:54.437Z,-1.20
2023-02-16T01:26:21.860Z,-1.20
2023-02-16T01:28:48.988Z,-1.30
2023-02-16T01:31:16.536Z,-1.20
2023-02-16T01:33:43.655Z,-1.30
2023-02-16T01:36:20.550Z,-1.20
2023-02-16T01:38:47.563Z,-1.30
2023-02-16T01:41:24.632Z,-1.30
2023-02-16T01:44:11.870Z,-1.30
2023-02-16T01:46:39.976Z,-1.30
2023-02-16T01:49:12.014Z,-1.40
2023-02-16T01:51:48.756Z,-1.40
2023-02-16T01:54:22.249Z,-1.40
2023-02-16T01:56:52.926Z,-1.40
2023-02-16T01:59:19.821Z,-1.40
2023-02-16T02:01:57.824Z,-0.90
2023-02-16T02:04:49.050Z,-1.40
2023-02-16T02:07:25.522Z,-1.40
2023-02-16T02:09:59.288Z,-1.40
2023-02-16T02:12:46.770Z,-1.40
2023-02-16T02:15:15.749Z,-1.40
2023-02-16T02:17:42.756Z,-1.50
2023-02-16T02:20:23.224Z,-1.50
2023-02-16T02:23:31.460Z,-1.50
2023-02-16T02:25:58.756Z,-1.50
2023-02-16T02:28:35.351Z,-1.50
2023-02-16T02:31:02.607Z,-1.50
2023-02-16T02:33:40.315Z,-1.60
2023-02-16T02:36:20.177Z,-1.50
2023-02-16T02:38:47.921Z,-1.50
2023-02-16T02:41:24.047Z,-1.50
2023-02-16T02:43:54.543Z,-1.50
2023-02-16T02:46:25.574Z,-1.50
2023-02-16T02:48:52.647Z,-1.60
2023-02-16T02:51:30.761Z,-1.50
2023-02-16T02:54:21.532Z,-1.50
2023-02-16T02:57:21.868Z,-1.60
2023-02-16T03:00:20.062Z,-1.60
2023-02-16T03:02:49.768Z,-1.60
2023-02-16T03:05:18.739Z,-1.60
2023-02-16T03:07:46.842Z,-1.60
2023-02-16T03:10:37.229Z,-1.60
2023-02-16T03:13:06.320Z,-1.60
2023-02-16T03:15:33.778Z,-1.60
2023-02-16T03:18:20.022Z,-1.70
2023-02-16T03:21:06.755Z,-1.70
2023-02-16T03:23:52.910Z,-1.70
2023-02-16T03:26:39.299Z,-1.70
2023-02-16T03:29:22.411Z,-1.70
2023-02-16T03:31:50.566Z,-1.70
2023-02-16T03:34:18.838Z,-1.80
2023-02-16T03:36:48.711Z,-1.70
2023-02-16T03:39:15.997Z,-1.60
2023-02-16T03:41:48.305Z,-1.60
2023-02-16T03:44:15.284Z,-2.00
2023-02-16T03:46:42.621Z,-1.50
2023-02-16T03:49:09.618Z,-1.60
2023-02-16T03:51:36.608Z,-1.70
2023-02-16T03:54:04.980Z,-1.70
2023-02-16T03:56:32.314Z,-1.70
2023-02-16T03:58:59.317Z,-1.80
2023-02-16T04:01:26.392Z,-1.80
2023-02-16T04:03:53.795Z,-1.70
2023-02-16T04:06:21.072Z,-1.70
2023-02-16T04:08:48.311Z,-1.70
2023-02-16T04:11:34.439Z,-2.40
2023-02-16T04:14:01.409Z,-1.80
2023-02-16T04:16:28.404Z,-1.30
2023-02-16T04:18:55.397Z,-1.80
2023-02-16T04:21:22.308Z,-1.70
2023-02-16T04:23:49.610Z,-1.80
2023-02-16T04:26:16.617Z,-1.30
2023-02-16T04:28:43.670Z,-1.80
2023-02-16T04:31:10.640Z,-1.70
2023-02-16T04:33:37.731Z,-1.20
2023-02-16T04:36:04.870Z,-1.80
2023-02-16T04:38:32.023Z,-1.80
2023-02-16T04:40:59.079Z,-1.80
2023-02-16T04:43:26.281Z,-1.80
2023-02-16T04:45:53.651Z,-1.80
2023-02-16T04:48:21.004Z,-1.80
2023-02-16T04:50:47.913Z,-1.80
2023-02-16T04:53:14.863Z,-1.80
2023-02-16T04:55:46.064Z,-1.70
2023-02-16T04:58:13.030Z,-1.80
2023-02-16T05:00:40.071Z,-1.80
2023-02-16T05:03:07.075Z,-1.50
2023-02-16T05:05:35.227Z,-1.80
2023-02-16T05:08:02.907Z,-1.80
2023-02-16T05:10:29.933Z,-1.80
2023-02-16T05:13:15.876Z,-1.80
2023-02-16T05:15:43.330Z,-1.80
2023-02-16T05:18:10.391Z,-1.90
2023-02-16T05:20:56.425Z,-1.20
2023-02-16T05:23:23.429Z,-1.90
2023-02-16T05:25:50.576Z,-1.90
2023-02-16T05:28:17.961Z,-1.90
2023-02-16T05:30:45.289Z,-1.70
2023-02-16T05:33:12.287Z,-1.90
2023-02-16T05:35:39.629Z,-1.90
2023-02-16T05:38:06.613Z,-1.80
2023-02-16T05:40:34.001Z,-1.80
2023-02-16T05:43:00.976Z,-1.90
2023-02-16T05:45:28.363Z,-1.80
2023-02-16T05:47:56.218Z,-1.90
2023-02-16T05:50:23.531Z,-1.50
2023-02-16T05:52:50.505Z,-1.80
2023-02-16T05:55:17.907Z,-0.80
2023-02-16T05:57:45.079Z,-1.90
2023-02-16T06:00:12.453Z,-1.50
2023-02-16T06:02:39.831Z,-1.90
2023-02-16T06:05:06.989Z,-2.20
2023-02-16T06:07:33.899Z,-1.90
2023-02-16T06:10:00.990Z,-1.20
2023-02-16T06:12:27.976Z,-1.90
2023-02-16T06:14:56.119Z,-1.50
2023-02-16T06:17:23.085Z,-1.80
2023-02-16T06:19:50.056Z,-1.80
2023-02-16T06:22:17.079Z,-1.80
2023-02-16T06:24:44.542Z,-1.70
2023-02-16T06:27:11.536Z,-1.80
2023-02-16T06:29:38.581Z,-0.40
2023-02-16T06:32:05.855Z,-1.80
2023-02-16T06:34:33.142Z,-2.40
2023-02-16T06:37:00.480Z,-1.80
2023-02-16T06:39:27.440Z,-1.80
2023-02-16T06:41:54.386Z,-0.60
2023-02-16T06:44:21.384Z,-1.80
2023-02-16T06:46:48.795Z,-1.60
2023-02-16T06:49:18.531Z,-1.60
2023-02-16T06:51:48.626Z,-1.70
2023-02-16T06:54:16.131Z,-1.60
2023-02-16T06:56:43.382Z,-1.60
2023-02-16T06:59:11.338Z,-1.50
2023-02-16T07:01:38.561Z,-1.50
2023-02-16T07:04:05.503Z,-1.40
2023-02-16T07:06:32.448Z,-1.40
2023-02-16T07:08:59.413Z,-1.10
2023-02-16T07:11:26.415Z,-1.40
2023-02-16T07:13:53.439Z,-1.30
2023-02-16T07:16:20.585Z,-1.30
2023-02-16T07:18:47.663Z,-1.30
2023-02-16T07:21:14.858Z,-1.20
2023-02-16T07:23:42.664Z,-1.10
2023-02-16T07:26:09.930Z,-1.10
2023-02-16T07:28:36.869Z,-1.10
2023-02-16T07:31:08.452Z,-1.10
2023-02-16T07:33:35.714Z,-0.80
2023-02-16T07:36:02.894Z,-1.00
2023-02-16T07:38:30.868Z,-1.00
2023-02-16T07:40:58.130Z,-0.90
2023-02-16T07:43:25.490Z,-0.80
2023-02-16T07:45:52.762Z,-1.20
2023-02-16T07:48:20.118Z,-0.70
2023-02-16T07:50:47.072Z,-0.70
2023-02-16T07:53:14.533Z,-0.60
2023-02-16T07:55:45.428Z,-0.50
2023-02-16T07:58:27.370Z,-0.40
2023-02-16T08:01:05.745Z,-0.40
2023-02-16T08:03:33.036Z,-0.30
2023-02-16T08:06:00.598Z,-0.10
2023-02-16T08:08:27.734Z,-0.10
2023-02-16T08:10:54.603Z,0.00
2023-02-16T08:13:21.992Z,0.10
2023-02-16T08:15:48.902Z,0.20
2023-02-16T08:18:15.845Z,0.20
2023-02-16T08:21:02.328Z,0.30
2023-02-16T08:23:29.707Z,0.40
2023-02-16T08:25:59.238Z,0.50
2023-02-16T08:28:28.903Z,0.50
2023-02-16T08:30:56.361Z,0.70
2023-02-16T08:33:23.342Z,0.80
2023-02-16T08:35:50.434Z,0.90
2023-02-16T08:38:17.447Z,1.10
2023-02-16T08:40:48.714Z,1.30
2023-02-16T08:43:15.691Z,1.20
2023-02-16T08:45:47.707Z,1.40
2023-02-16T08:48:15.123Z,1.50
2023-02-16T08:50:53.876Z,1.70
2023-02-16T08:53:25.362Z,1.80
2023-02-16T08:55:54.619Z,1.90
2023-02-16T08:58:21.997Z,2.10
2023-02-16T09:00:49.848Z,2.20
2023-02-16T09:03:19.168Z,2.30
2023-02-16T09:05:46.592Z,2.50
2023-02-16T09:08:14.490Z,2.60
2023-02-16T09:10:41.588Z,2.70
2023-02-16T09:13:10.876Z,2.80
2023-02-16T09:15:38.491Z,2.90
2023-02-16T09:18:05.449Z,3.10
2023-02-16T09:20:32.454Z,3.20
2023-02-16T09:22:59.346Z,3.30
2023-02-16T09:25:26.460Z,3.40
2023-02-16T09:27:53.429Z,3.50
2023-02-16T09:30:21.138Z,3.70
2023-02-16T09:32:48.076Z,3.80
2023-02-16T09:35:15.899Z,3.90
2023-02-16T09:37:42.847Z,3.90
2023-02-16T09:40:12.343Z,4.00
2023-02-16T09:42:54.178Z,4.00
2023-02-16T09:45:22.080Z,4.10
2023-02-16T09:47:51.634Z,4.20
2023-02-16T09:50:38.185Z,4.40
2023-02-16T09:53:15.504Z,4.40
2023-02-16T09:55:47.506Z,4.50
2023-02-16T09:58:21.064Z,4.50
2023-02-16T10:00:51.351Z,4.50
2023-02-16T10:03:21.416Z,4.60
2023-02-16T10:06:01.281Z,4.60
2023-02-16T10:08:31.422Z,4.70
2023-02-16T10:11:33.674Z,4.80
2023-02-16T10:14:03.144Z,4.90
2023-02-16T10:16:32.602Z,5.00
2023-02-16T10:19:00.780Z,5.10
2023-02-16T10:21:29.525Z,5.10
2023-02-16T10:23:58.428Z,5.20
2023-02-16T10:26:32.921Z,5.30
2023-02-16T10:29:03.702Z,5.30
2023-02-16T10:31:36.811Z,5.30
2023-02-16T10:34:23.207Z,5.40
2023-02-16T10:36:53.274Z,5.40
2023-02-16T10:39:35.356Z,5.50
2023-02-16T10:42:15.102Z,5.50
2023-02-16T10:44:46.043Z,5.50
2023-02-16T10:47:22.236Z,5.60
2023-02-16T10:49:49.949Z,5.60
2023-02-16T10:52:17.417Z,5.60
2023-02-16T10:54:44.393Z,5.70
2023-02-16T10:57:27.769Z,5.80
2023-02-16T10:59:57.260Z,5.80
2023-02-16T11:02:25.814Z,5.90
2023-02-16T11:04:54.411Z,6.00
2023-02-16T11:07:23.445Z,6.00
2023-02-16T11:09:53.128Z,6.00
2023-02-16T11:12:25.806Z,6.00
2023-02-16T11:14:54.973Z,6.10
2023-02-16T11:17:23.529Z,6.10
2023-02-16T11:19:52.815Z,6.20
2023-02-16T11:22:31.445Z,6.30
2023-02-16T11:25:14.034Z,6.40
2023-02-16T11:27:49.920Z,6.50
2023-02-16T11:30:27.986Z,6.50
2023-02-16T11:32:56.201Z,6.60
2023-02-16T11:35:23.116Z,6.60
2023-02-16T11:37:50.594Z,6.70
2023-02-16T11:40:19.550Z,6.60
2023-02-16T11:42:50.045Z,6.70
2023-02-16T11:45:22.781Z,6.70
2023-02-16T11:47:53.475Z,6.60
2023-02-16T11:50:29.126Z,6.70
2023-02-16T11:52:58.271Z,6.80
2023-02-16T11:55:33.481Z,6.80
2023-02-16T11:58:20.478Z,6.80
2023-02-16T12:00:50.503Z,6.80
2023-02-16T12:03:31.589Z,6.80
2023-02-16T12:05:58.573Z,6.90
2023-02-16T12:08:25.646Z,6.90
2023-02-16T12:10:58.673Z,6.90
2023-02-16T12:13:35.117Z,6.90
2023-02-16T12:16:08.726Z,7.00
2023-02-16T12:18:42.112Z,7.00
2023-02-16T12:21:18.245Z,6.90
2023-02-16T12:24:00.901Z,7.20
2023-02-16T12:26:36.694Z,7.20
2023-02-16T12:29:12.436Z,7.20
2023-02-16T12:32:04.779Z,7.30
2023-02-16T12:34:31.823Z,7.30
2023-02-16T12:37:04.997Z,7.30
2023-02-16T12:39:45.886Z,7.40
2023-02-16T12:42:22.044Z,7.40
2023-02-16T12:44:52.529Z,7.40
2023-02-16T12:47:21.444Z,7.50
2023-02-16T12:50:02.209Z,7.50
2023-02-16T12:52:48.000Z,7.40
2023-02-16T12:55:33.754Z,7.40
2023-02-16T12:58:04.401Z,7.40
2023-02-16T13:00:31.268Z,7.40
2023-02-16T13:03:21.276Z,7.50
2023-02-16T13:05:51.053Z,7.50
2023-02-16T13:08:22.252Z,7.50
2023-02-16T13:10:52.300Z,7.50
2023-02-16T13:13:22.050Z,7.50
2023-02-16T13:15:58.883Z,7.50
2023-02-16T13:18:31.481Z,7.50
2023-02-16T13:21:02.444Z,7.60
2023-02-16T13:23:34.009Z,7.60
2023-02-16T13:26:04.545Z,7.60
2023-02-16T13:28:55.874Z,7.60
2023-02-16T13:31:41.373Z,7.70
2023-02-16T13:34:33.081Z,7.50
2023-02-16T13:37:18.449Z,7.50
2023-02-16T13:39:51.510Z,7.40
2023-02-16T13:42:37.321Z,7.40
2023-02-16T13:45:12.475Z,7.30
2023-02-16T13:47:41.746Z,7.40
2023-02-16T13:50:24.052Z,7.40
2023-02-16T13:52:52.170Z,7.40
2023-02-16T13:55:25.970Z,7.40
2023-02-16T13:57:56.033Z,7.30
2023-02-16T14:00:32.352Z,7.30
2023-02-16T14:03:01.173Z,7.30
2023-02-16T14:05:33.872Z,7.10
2023-02-16T14:08:24.118Z,7.30
2023-02-16T14:10:51.361Z,7.30
2023-02-16T14:13:18.292Z,7.30
2023-02-16T14:15:52.393Z,7.30
2023-02-16T14:18:33.194Z,7.20
2023-02-16T14:21:05.305Z,7.10
2023-02-16T14:23:34.911Z,7.10
2023-02-16T14:26:03.374Z,7.10
2023-02-16T14:28:30.507Z,7.10
2023-02-16T14:31:11.433Z,7.20
2023-02-16T14:33:45.548Z,7.20
2023-02-16T14:36:15.281Z,7.20
2023-02-16T14:38:42.346Z,6.80
2023-02-16T14:41:24.091Z,7.20
2023-02-16T14:43:55.678Z,7.10
2023-02-16T14:46:35.202Z,7.10
2023-02-16T14:49:08.307Z,7.00
2023-02-16T14:51:42.612Z,6.90
2023-02-16T14:54:18.639Z,6.90
2023-02-16T14:56:49.872Z,6.80
2023-02-16T14:59:39.325Z,6.80
2023-02-16T15:02:24.565Z,6.80
2023-02-16T15:04:51.541Z,6.80
2023-02-16T15:07:18.819Z,6.70
2023-02-16T15:09:47.759Z,6.60
2023-02-16T15:12:24.263Z,6.40
2023-02-16T15:14:52.936Z,6.30
2023-02-16T15:17:40.171Z,6.30
2023-02-16T15:20:15.004Z,6.20
2023-02-16T15:22:48.560Z,6.10
2023-02-16T15:25:21.293Z,6.00
2023-02-16T15:28:01.600Z,6.00
2023-02-16T15:30:30.594Z,5.90
2023-02-16T15:32:59.131Z,5.80
2023-02-16T15:35:40.080Z,5.80
2023-02-16T15:38:09.833Z,5.70
2023-02-16T15:40:37.009Z,5.60
2023-02-16T15:43:24.250Z,5.50
2023-02-16T15:45:55.066Z,5.40
2023-02-16T15:48:38.331Z,5.40
2023-02-16T15:51:27.603Z,5.30
2023-02-16T15:53:59.458Z,5.20
2023-02-16T15:56:31.837Z,5.20
2023-02-16T15:59:01.054Z,5.20
2023-02-16T16:01:33.319Z,5.00
2023-02-16T16:04:05.910Z,4.90
2023-02-16T16:06:34.164Z,4.90
2023-02-16T16:09:01.377Z,4.80
2023-02-16T16:11:28.554Z,4.70
2023-02-16T16:13:55.490Z,4.70
2023-02-16T16:16:22.655Z,4.60
2023-02-16T16:18:51.830Z,4.60
2023-02-16T16:21:21.748Z,4.50
2023-02-16T16:24:02.289Z,4.50
2023-02-16T16:26:30.924Z,4.50
2023-02-16T16:28:58.094Z,4.40
2023-02-16T16:31:25.114Z,4.40
2023-02-16T16:33:56.812Z,4.40
2023-02-16T16:36:37.415Z,4.40
2023-02-16T16:39:16.670Z,4.40
2023-02-16T16:42:02.356Z,4.30
2023-02-16T16:44:34.164Z,4.40
2023-02-16T16:47:19.499Z,4.30
2023-02-16T16:49:52.445Z,4.40
2023-02-16T16:52:36.684Z,4.40
2023-02-16T16:55:18.889Z,4.40
2023-02-16T16:57:46.431Z,4.40
2023-02-16T17:00:13.749Z,4.40
2023-02-16T17:02:40.669Z,4.40
2023-02-16T17:05:07.831Z,4.40
2023-02-16T17:07:34.821Z,4.30
2023-02-16T17:10:02.095Z,4.30
2023-02-16T17:12:29.559Z,4.30
2023-02-16T17:14:56.828Z,4.20
2023-02-16T17:17:24.620Z,4.20
2023-02-16T17:19:51.646Z,4.10
2023-02-16T17:22:20.357Z,4.00
2023-02-16T17:24:47.934Z,4.00
2023-02-16T17:27:14.848Z,4.00
2023-02-16T17:29:43.211Z,3.90
2023-02-16T17:32:10.338Z,3.90
2023-02-16T17:34:37.384Z,3.90
2023-02-16T17:37:07.486Z,3.80
2023-02-16T17:39:35.220Z,3.70
2023-02-16T17:42:02.766Z,3.70
2023-02-16T17:44:29.770Z,3.60
2023-02-16T17:46:56.822Z,3.60
2023-02-16T17:49:23.891Z,3.50
2023-02-16T17:51:50.957Z,3.50
2023-02-16T17:54:17.943Z,3.40
2023-02-16T17:56:45.455Z,3.40
2023-02-16T17:59:15.506Z,3.40
2023-02-16T18:01:42.998Z,3.30
2023-02-16T18:04:10.118Z,3.30
2023-02-16T18:06:37.475Z,3.20
2023-02-16T18:09:04.900Z,3.20
2023-02-16T18:11:31.833Z,3.20
2023-02-16T18:13:58.811Z,3.10
2023-02-16T18:16:27.023Z,3.10
2023-02-16T18:18:54.086Z,3.00
2023-02-16T18:21:21.046Z,3.00
2023-02-16T18:23:48.036Z,2.90
2023-02-16T18:26:16.179Z,2.90
2023-02-16T18:28:43.405Z,2.90
2023-02-16T18:31:10.547Z,2.90
2023-02-16T18:33:37.636Z,3.00
2023-02-16T18:36:05.082Z,3.00
2023-02-16T18:38:32.424Z,2.70
2023-02-16T18:40:59.561Z,2.90
2023-02-16T18:43:26.561Z,2.90
2023-02-16T18:45:53.685Z,2.90
2023-02-16T18:48:21.879Z,2.80
2023-02-16T18:50:49.143Z,2.70
2023-02-16T18:53:16.154Z,2.70
2023-02-16T18:55:43.261Z,2.60
2023-02-16T18:58:11.729Z,2.70
2023-02-16T19:00:39.247Z,2.70
2023-02-16T19:03:06.392Z,2.70
2023-02-16T19:05:33.820Z,2.70
2023-02-16T19:08:00.841Z,2.70
2023-02-16T19:10:27.987Z,2.70
2023-02-16T19:12:54.982Z,2.70
2023-02-16T19:15:22.043Z,2.60
2023-02-16T19:17:49.298Z,2.60
2023-02-16T19:20:18.605Z,2.60
2023-02-16T19:22:46.118Z,2.60
2023-02-16T19:25:13.347Z,2.60
2023-02-16T19:27:40.364Z,2.50
2023-02-16T19:30:07.538Z,2.50
2023-02-16T19:32:34.969Z,2.50
2023-02-16T19:35:02.020Z,2.50
2023-02-16T19:37:29.439Z,2.50
2023-02-16T19:39:56.391Z,2.50
2023-02-16T19:42:23.328Z,2.40
2023-02-16T19:44:50.547Z,2.40
2023-02-16T19:47:17.474Z,2.40
2023-02-16T19:49:44.563Z,2.30
2023-02-16T19:52:11.650Z,2.30
2023-02-16T19:54:38.983Z,2.30
2023-02-16T19:57:06.526Z,2.80
2023-02-16T19:59:34.270Z,2.40
2023-02-16T20:02:01.569Z,2.40
2023-02-16T20:04:28.623Z,2.30
2023-02-16T20:06:56.606Z,2.40
2023-02-16T20:09:24.054Z,2.40
2023-02-16T20:11:51.239Z,2.30
2023-02-16T20:14:18.242Z,2.30
2023-02-16T20:16:45.472Z,2.20
2023-02-16T20:19:12.446Z,2.20
2023-02-16T20:21:41.030Z,2.50
2023-02-16T20:24:08.021Z,2.20
2023-02-16T20:26:42.312Z,2.20
2023-02-16T20:29:11.192Z,2.20
2023-02-16T20:31:40.064Z,2.20
2023-02-16T20:34:07.883Z,2.20
2023-02-16T20:36:35.614Z,2.20
2023-02-16T20:39:03.645Z,2.30
2023-02-16T20:41:30.623Z,2.30
2023-02-16T20:43:57.664Z,2.30
2023-02-16T20:46:25.041Z,2.30
2023-02-16T20:48:52.515Z,2.40
2023-02-16T20:51:20.249Z,2.30
2023-02-16T20:53:47.228Z,2.40
2023-02-16T20:56:21.882Z,2.10
2023-02-16T20:58:49.825Z,2.40
2023-02-16T21:01:25.615Z,2.40
2023-02-16T21:03:53.306Z,2.40
2023-02-16T21:06:20.398Z,2.40
2023-02-16T21:08:47.642Z,2.40
2023-02-16T21:11:15.068Z,2.40
2023-02-16T21:13:42.562Z,2.40
2023-02-16T21:16:09.963Z,2.40
2023-02-16T21:18:40.044Z,2.40
2023-02-16T21:21:08.110Z,2.40
2023-02-16T21:23:35.149Z,2.30
2023-02-16T21:26:03.661Z,2.30
2023-02-16T21:28:30.892Z,2.20
2023-02-16T21:31:02.466Z,2.20
2023-02-16T21:33:30.619Z,2.20
2023-02-16T21:36:08.969Z,2.30
2023-02-16T21:38:36.383Z,2.30
2023-02-16T21:41:22.977Z,2.30
2023-02-16T21:43:54.334Z,3.30
2023-02-16T21:46:22.130Z,2.20
2023-02-16T21:48:50.208Z,2.20
2023-02-16T21:51:18.732Z,2.20
2023-02-16T21:53:46.038Z,2.20
2023-02-16T21:56:33.387Z,2.20
2023-02-16T21:59:02.527Z,2.20
2023-02-16T22:01:31.367Z,2.20
2023-02-16T22:04:00.364Z,2.30
2023-02-16T22:06:29.033Z,2.30
2023-02-16T22:08:56.032Z,2.30
2023-02-16T22:11:23.092Z,2.20
2023-02-16T22:13:57.173Z,2.20
2023-02-16T22:16:24.842Z,2.20
2023-02-16T22:19:10.575Z,2.20
2023-02-16T22:21:38.521Z,2.20
2023-02-16T22:24:05.988Z,2.10
2023-02-16T22:26:33.953Z,2.10
2023-02-16T22:29:02.591Z,2.00
2023-02-16T22:31:29.750Z,2.00
2023-02-16T22:33:57.679Z,2.00
2023-02-16T22:36:25.131Z,2.00
2023-02-16T22:38:52.699Z,2.00
2023-02-16T22:41:20.107Z,1.90
2023-02-16T22:43:47.166Z,1.90
2023-02-16T22:46:15.690Z,1.90
2023-02-16T22:48:43.434Z,2.00
2023-02-16T22:51:12.081Z,2.00
2023-02-16T22:53:39.076Z,2.00
2023-02-16T22:56:07.322Z,2.30
2023-02-16T22:58:34.940Z,2.10
2023-02-16T23:01:01.979Z,2.10
2023-02-16T23:03:29.358Z,2.10
2023-02-16T23:05:56.409Z,2.20
2023-02-16T23:08:23.624Z,2.20
2023-02-16T23:11:02.684Z,2.60
2023-02-16T23:13:33.512Z,2.20
2023-02-16T23:16:08.097Z,2.20
2023-02-16T23:18:37.598Z,2.20
2023-02-16T23:21:05.608Z,2.20
2023-02-16T23:23:32.798Z,2.20
2023-02-16T23:25:59.760Z,2.20
2023-02-16T23:28:26.748Z,2.20
2023-02-16T23:30:56.154Z,2.20
2023-02-16T23:33:23.357Z,2.20
2023-02-16T23:35:50.293Z,2.20
2023-02-16T23:38:17.306Z,2.20
2023-02-16T23:40:44.387Z,2.20
2023-02-16T23:43:11.373Z,2.20
2023-02-16T23:45:38.774Z,2.10
2023-02-16T23:48:05.863Z,2.10
2023-02-16T23:50:32.846Z,2.10
2023-02-16T23:52:59.846Z,2.10
2023-02-16T23:55:26.800Z,2.20
2023-02-16T23:57:53.808Z,2.20
